AirNav   Air Wisconsin Up To $57,000 Bonus
 
 1206 users online  

09WA Holy Family Hospital Heliport
Spokane, Washington, USA

GOING TO SPOKANE?


FAA INFORMATION EFFECTIVE 20 JUNE 2019

Location

FAA Identifier: 09WA
Lat/Long: 47-42-34.0500N / 117-24-23.9100W
47-42.567500N / 117-24.398500W
47.7094583 / -117.4066417
(estimated)
Elevation: 2081 ft. / 634 m (estimated)
Variation: 19E (1985)
Time zone: UTC -7 (UTC -8 during Standard Time)
Zip code: 99207

Heliport Operations

Heliport use: Private use, MEDICAL USE.
Activation date: 03/1976
Control tower: no
ARTCC: SEATTLE CENTER
FSS: SEATTLE FLIGHT SERVICE STATION
Attendance: UNATNDD
Wind indicator: lighted
Segmented circle: no
Lights: SS-SR

Heliport Communications

WX ASOS at SFF (4 nm SE): 120.55 (509-535-3290)
WX ASOS at GEG (8 nm SW): PHONE 509-624-4406
WX ASOS at DEW (15 nm N): 135.175 (509-276-2303)

Nearby radio navigation aids

VOR radial/distance  VOR name  Freq  Var
GEGr025/12.4SPOKANE VORTAC115.5021E
COEr242/24.0COEUR D'ALENE VOR/DME108.8019E

 
NDB name  Hdg/Dist  Freq  Var  ID
DEER PARK161/15.536516EDPY -.. .--. -.--

Heliport Services

Runway Information

Helipad H1

Dimensions: 60 x 60 ft. / 18 x 18 m
Surface: concrete
Runway edge lights: PERI
Latitude: 47-42.567500N
Longitude: 117-24.398500W
Elevation: 2081.0 ft.
Traffic pattern: leftleft
Markings: NSTD

Heliport Ownership and Management from official FAA records

Ownership: Privately-owned
Owner: HOLY FAMILY HOSPITAL
NORTH 5633 LIDGERWOOD ST
SPOKANE, WA 99207
Phone 509-482-0111
Manager: D.HOLLINGWORTH, ADMINISTRATOR
NORTH 5633 LIDGERWOOD ST
SPOKANE, WA 99207
Phone 509-482-0111

Heliport Operational Statistics

Aircraft based on the field: 1
Helicopters: 1
    

Additional Remarks

A52-H1 LGTD PWR POLES 277' E & 454' W FM THR.
COMPANY FREQ - PRIMARY 155.340 - SECONDARY 155.280.
FOR CD CTC SPOKANE APCH AT 509-742-2522

Instrument Procedures

There are no published instrument procedures at 09WA.

Some nearby airports with instrument procedures:

KSFF - Felts Field Airport (4 nm SE)
KGEG - Spokane International Airport (8 nm SW)
KSKA - Fairchild Air Force Base (12 nm SW)
KDEW - Deer Park Airport (15 nm N)
KCOE - Coeur d'Alene Airport - Pappy Boyington Field (24 nm E)
 
Loc | Ops | Rwys | IFR | FBO | Links
Com | Nav | Svcs | Stats | Notes
Area around 09WA (Holy Family Hospital Heliport)
 
Road maps at: MapQuest Bing Google
 
Aerial photo
No photo
 
Sectional chart

 
Airport distance calculator
Flying to Holy Family Hospital Heliport? Find the distance to fly.

From to 09WA

Sunrise and sunset
Times for 24-Jun-2019
 Local
(UTC-7)
 Zulu
(UTC)
Morning civil twilight04:1211:12
Sunrise04:5311:53
Sunset20:5103:51
Evening civil twilight21:3204:32

Current date and time
Zulu (UTC)  24-Jun-2019 22:58:11
Local (UTC-7)  24-Jun-2019 15:58:11
 
METAR
KSFF 
4nm SE 
242253Z 15009G16KT 10SM SCT065 BKN080 22/03 A2989 RMK AO2 SLP115 T02170033
KGEG 
8nm SW 
242253Z 20012G20KT 10SM SCT070 SCT200 21/03 A2990 RMK AO2 SLP117 T02110028
KSKA 
11nm SW 
242158Z 21008G15KT 10SM FEW060 FEW090 21/03 A2991 RMK AO2A SLP126 T02090027 $
KDEW 
15nm N 
242253Z AUTO 20006KT 10SM FEW110 21/04 A2989 RMK AO2 SLP117 T02110039
TAF
KSFF 
4nm SE 
241725Z 2418/2518 20007G15KT P6SM BKN050 FM250400 VRB02KT P6SM SCT200 FM251200 07002KT P6SM BKN250
KGEG 
8nm SW 
241759Z 2418/2518 21008G16KT P6SM SCT030 BKN080 FM250300 19004KT P6SM FEW080 SCT200 FM250700 13004KT P6SM SCT200 FM251300 09004KT P6SM BKN250
KSKA 
11nm SW 
241904Z 2419/2601 21012G18KT 9999 FEW040 BKN080 610803 QNH2986INS BECMG 2503/2504 VRB06KT 9999 FEW080 FEW150 QNH2985INS BECMG 2511/2512 06006KT 9999 SCT150 BKN200 QNH2978INS WND 18009KT AFT 2521 TX21/2500Z TN08/2512Z
NOTAMs
Click for the latest NOTAMs
NOTAMs are issued by the DoD/FAA and will open in a separate window not controlled by AirNav.

 

 
 

Would you like to see your business listed on this page?

 If your business provides an interesting product or service to pilots, flight crews, aircraft, or users of the Holy Family Hospital Heliport, you should consider listing it here.  To start the listing process, click on the button below
 
Add a business
 

Other Pages about Holy Family Hospital Heliport

Update a link
 
Copyright © AirNav, LLC. All rights reserved. Privacy Policy  Contact